createdAt,value
2022-08-17T00:01:40.002Z,22.40
2022-08-17T00:04:19.777Z,22.40
2022-08-17T00:06:49.331Z,22.40
2022-08-17T00:09:19.047Z,22.30
2022-08-17T00:12:35.081Z,22.30
2022-08-17T00:14:36.929Z,22.20
2022-08-17T00:17:04.898Z,22.20
2022-08-17T00:19:32.880Z,22.20
2022-08-17T00:22:33.993Z,22.20
2022-08-17T00:24:50.259Z,22.10
2022-08-17T00:27:17.258Z,22.10
2022-08-17T00:29:45.676Z,22.10
2022-08-17T00:33:11.902Z,22.20
2022-08-17T00:34:59.665Z,22.20
2022-08-17T00:37:28.270Z,22.20
2022-08-17T00:39:55.359Z,22.10
2022-08-17T00:42:23.835Z,22.10
2022-08-17T00:44:53.287Z,22.10
2022-08-17T00:47:20.491Z,22.20
2022-08-17T00:49:47.268Z,22.00
2022-08-17T00:52:22.011Z,21.90
2022-08-17T00:54:53.899Z,22.10
2022-08-17T00:57:26.465Z,21.90
2022-08-17T01:00:03.086Z,21.80
2022-08-17T01:02:42.743Z,21.90
2022-08-17T01:05:58.312Z,22.00
2022-08-17T01:08:28.512Z,22.00
2022-08-17T01:11:02.241Z,22.00
2022-08-17T01:13:36.899Z,22.00
2022-08-17T01:16:16.254Z,21.90
2022-08-17T01:18:45.248Z,21.90
2022-08-17T01:21:19.784Z,21.90
2022-08-17T01:23:47.934Z,21.80
2022-08-17T01:26:15.507Z,21.70
2022-08-17T01:28:54.328Z,21.70
2022-08-17T01:31:25.679Z,21.70
2022-08-17T01:33:53.603Z,21.50
2022-08-17T01:36:20.961Z,21.50
2022-08-17T01:38:49.649Z,21.50
2022-08-17T01:41:16.963Z,21.60
2022-08-17T01:43:47.652Z,21.60
2022-08-17T01:46:18.634Z,21.60
2022-08-17T01:48:47.728Z,21.50
2022-08-17T01:51:15.890Z,21.50
2022-08-17T01:53:47.634Z,21.40
2022-08-17T01:56:18.831Z,21.40
2022-08-17T01:58:46.450Z,21.30
2022-08-17T02:01:15.356Z,21.30
2022-08-17T02:03:42.423Z,21.20
2022-08-17T02:06:27.186Z,21.10
2022-08-17T02:09:02.435Z,21.20
2022-08-17T02:11:33.683Z,21.10
2022-08-17T02:14:03.279Z,21.10
2022-08-17T02:16:37.163Z,21.10
2022-08-17T02:19:06.912Z,21.10
2022-08-17T02:21:34.619Z,21.20
2022-08-17T02:24:01.856Z,21.30
2022-08-17T02:26:28.719Z,21.30
2022-08-17T02:28:56.971Z,21.40
2022-08-17T02:31:23.789Z,21.40
2022-08-17T02:33:56.891Z,21.30
2022-08-17T02:36:31.284Z,21.40
2022-08-17T02:38:58.998Z,21.20
2022-08-17T02:41:25.866Z,21.10
2022-08-17T02:43:53.584Z,21.10
2022-08-17T02:46:22.517Z,21.00
2022-08-17T02:48:50.856Z,21.00
2022-08-17T02:51:17.974Z,21.00
2022-08-17T02:53:44.849Z,21.00
2022-08-17T02:56:45.670Z,20.90
2022-08-17T02:59:12.442Z,20.90
2022-08-17T03:01:41.288Z,20.80
2022-08-17T03:04:08.147Z,20.80
2022-08-17T03:06:35.747Z,20.80
2022-08-17T03:09:02.705Z,20.80
2022-08-17T03:11:29.827Z,20.80
2022-08-17T03:13:57.380Z,20.80
2022-08-17T03:16:24.682Z,20.90
2022-08-17T03:18:54.107Z,20.90
2022-08-17T03:21:21.576Z,21.00
2022-08-17T03:23:48.403Z,20.90
2022-08-17T03:26:21.373Z,20.90
2022-08-17T03:28:48.882Z,20.80
2022-08-17T03:31:16.188Z,20.70
2022-08-17T03:33:43.055Z,20.60
2022-08-17T03:36:12.321Z,20.60
2022-08-17T03:38:39.645Z,20.50
2022-08-17T03:41:07.200Z,20.50
2022-08-17T03:43:34.587Z,20.50
2022-08-17T03:46:27.152Z,20.40
2022-08-17T03:49:17.928Z,20.30
2022-08-17T03:52:05.093Z,20.20
2022-08-17T03:54:50.415Z,20.10
2022-08-17T03:57:17.676Z,20.10
2022-08-17T03:59:45.137Z,20.10
2022-08-17T04:02:16.057Z,20.20
2022-08-17T04:04:42.924Z,20.20
2022-08-17T04:07:11.459Z,20.30
2022-08-17T04:09:38.296Z,20.30
2022-08-17T04:12:05.513Z,20.20
2022-08-17T04:14:51.900Z,20.10
2022-08-17T04:17:22.231Z,20.00
2022-08-17T04:19:49.060Z,20.00
2022-08-17T04:22:31.454Z,20.00
2022-08-17T04:25:04.814Z,20.00
2022-08-17T04:27:32.075Z,19.90
2022-08-17T04:29:58.951Z,20.00
2022-08-17T04:33:00.766Z,19.90
2022-08-17T04:35:17.377Z,20.00
2022-08-17T04:37:45.610Z,19.90
2022-08-17T04:40:31.398Z,20.00
2022-08-17T04:43:03.497Z,20.00
2022-08-17T04:45:32.036Z,20.00
2022-08-17T04:48:00.998Z,20.00
2022-08-17T04:50:28.186Z,20.10
2022-08-17T04:52:56.773Z,20.20
2022-08-17T04:55:24.323Z,20.20
2022-08-17T04:57:51.193Z,20.30
2022-08-17T05:00:19.189Z,20.30
2022-08-17T05:02:49.880Z,20.40
2022-08-17T05:05:19.519Z,20.40
2022-08-17T05:07:47.950Z,20.50
2022-08-17T05:10:16.184Z,20.50
2022-08-17T05:12:43.530Z,20.50
2022-08-17T05:15:14.533Z,20.60
2022-08-17T05:17:41.396Z,20.70
2022-08-17T05:20:09.532Z,20.60
2022-08-17T05:22:36.766Z,20.70
2022-08-17T05:25:04.410Z,20.70
2022-08-17T05:27:35.382Z,20.70
2022-08-17T05:30:03.935Z,20.70
2022-08-17T05:32:39.028Z,20.70
2022-08-17T05:35:08.320Z,20.80
2022-08-17T05:37:35.084Z,20.80
2022-08-17T05:40:02.450Z,20.80
2022-08-17T05:42:29.374Z,20.90
2022-08-17T05:44:59.143Z,21.00
2022-08-17T05:47:27.069Z,21.20
2022-08-17T05:49:54.521Z,21.10
2022-08-17T05:52:32.044Z,21.10
2022-08-17T05:55:10.541Z,21.10
2022-08-17T05:57:53.328Z,21.10
2022-08-17T06:00:30.204Z,21.20
2022-08-17T06:03:13.974Z,21.40
2022-08-17T06:05:57.825Z,21.60
2022-08-17T06:08:33.693Z,21.60
2022-08-17T06:11:08.622Z,21.70
2022-08-17T06:13:54.904Z,21.80
2022-08-17T06:16:33.794Z,21.90
2022-08-17T06:19:06.530Z,21.90
2022-08-17T06:21:36.079Z,21.90
2022-08-17T06:24:07.316Z,21.90
2022-08-17T06:26:42.986Z,21.90
2022-08-17T06:29:20.233Z,22.00
2022-08-17T06:31:48.853Z,22.10
2022-08-17T06:34:15.785Z,22.20
2022-08-17T06:36:54.394Z,22.30
2022-08-17T06:39:35.986Z,22.40
2022-08-17T06:44:56.441Z,22.60
2022-08-17T06:47:32.082Z,22.70
2022-08-17T06:50:07.826Z,22.70
2022-08-17T06:52:46.417Z,22.70
2022-08-17T06:55:18.940Z,22.80
2022-08-17T06:57:50.152Z,22.80
2022-08-17T07:00:19.800Z,22.80
2022-08-17T07:02:53.547Z,22.90
2022-08-17T07:05:23.540Z,22.90
2022-08-17T07:08:02.995Z,23.00
2022-08-17T07:10:48.601Z,23.10
2022-08-17T07:13:51.126Z,23.10
2022-08-17T07:16:24.527Z,23.20
2022-08-17T07:18:54.764Z,23.20
2022-08-17T07:21:34.561Z,23.30
2022-08-17T07:24:26.371Z,23.40
2022-08-17T07:27:06.926Z,23.40
2022-08-17T07:29:39.746Z,23.50
2022-08-17T07:32:08.884Z,23.70
2022-08-17T07:35:11.203Z,23.70
2022-08-17T07:37:40.494Z,23.80
2022-08-17T07:40:17.422Z,23.90
2022-08-17T07:43:01.487Z,24.10
2022-08-17T07:45:49.468Z,24.10
2022-08-17T07:48:19.958Z,24.00
2022-08-17T07:50:49.675Z,24.10
2022-08-17T07:53:20.443Z,24.10
2022-08-17T07:55:48.712Z,24.10
2022-08-17T07:58:17.648Z,24.10
2022-08-17T08:00:44.758Z,24.20
2022-08-17T08:03:23.744Z,24.10
2022-08-17T08:05:57.803Z,24.10
2022-08-17T08:08:29.689Z,24.30
2022-08-17T08:11:05.440Z,24.40
2022-08-17T08:13:33.599Z,24.50
2022-08-17T08:16:20.515Z,24.70
2022-08-17T08:18:55.676Z,24.80
2022-08-17T08:21:32.937Z,24.80
2022-08-17T08:24:10.035Z,24.80
2022-08-17T08:26:46.382Z,24.90
2022-08-17T08:29:28.142Z,24.90
2022-08-17T08:32:03.936Z,24.90
2022-08-17T08:34:55.853Z,25.00
2022-08-17T08:37:43.530Z,25.10
2022-08-17T08:40:33.461Z,25.20
2022-08-17T08:43:10.424Z,25.20
2022-08-17T08:45:47.746Z,25.40
2022-08-17T08:48:55.710Z,25.50
2022-08-17T08:51:19.773Z,25.60
2022-08-17T08:54:02.207Z,25.80
2022-08-17T08:56:37.094Z,26.00
2022-08-17T08:59:12.327Z,26.10
2022-08-17T09:01:52.078Z,26.10
2022-08-17T09:05:09.974Z,26.10
2022-08-17T09:07:31.558Z,26.20
2022-08-17T09:10:06.128Z,26.20
2022-08-17T09:12:41.580Z,26.30
2022-08-17T09:15:18.039Z,26.30
2022-08-17T09:18:08.627Z,26.40
2022-08-17T09:20:49.926Z,26.50
2022-08-17T09:23:30.408Z,26.50
2022-08-17T09:26:03.745Z,26.50
2022-08-17T09:28:34.731Z,26.50
2022-08-17T09:31:07.141Z,26.40
2022-08-17T09:33:40.183Z,26.40
2022-08-17T09:36:12.665Z,26.50
2022-08-17T09:38:50.541Z,26.80
2022-08-17T09:41:24.938Z,26.90
2022-08-17T09:43:58.870Z,27.10
2022-08-17T09:46:29.202Z,27.20
2022-08-17T09:49:03.412Z,27.30
2022-08-17T09:51:35.737Z,27.20
2022-08-17T09:54:34.765Z,27.30
2022-08-17T09:57:28.172Z,27.30
2022-08-17T10:00:16.060Z,27.30
2022-08-17T10:03:08.364Z,27.40
2022-08-17T10:05:41.683Z,27.50
2022-08-17T10:08:16.930Z,27.50
2022-08-17T10:10:59.122Z,27.60
2022-08-17T10:13:54.014Z,27.60
2022-08-17T10:16:37.291Z,27.70
2022-08-17T10:19:13.861Z,27.70
2022-08-17T10:22:32.774Z,27.70
2022-08-17T10:25:21.777Z,27.80
2022-08-17T10:27:54.695Z,27.90
2022-08-17T10:30:26.592Z,27.90
2022-08-17T10:32:57.641Z,28.00
2022-08-17T10:35:39.310Z,28.00
2022-08-17T10:38:24.680Z,28.10
2022-08-17T10:40:55.816Z,28.10
2022-08-17T10:43:36.416Z,28.20
2022-08-17T10:46:30.308Z,28.20
2022-08-17T10:49:22.675Z,28.10
2022-08-17T10:51:52.851Z,28.10
2022-08-17T10:54:46.937Z,28.10
2022-08-17T10:57:35.068Z,28.10
2022-08-17T11:00:03.684Z,28.20
2022-08-17T11:02:41.691Z,28.30
2022-08-17T11:05:32.518Z,28.50
2022-08-17T11:08:12.167Z,28.60
2022-08-17T11:10:52.260Z,28.60
2022-08-17T11:13:30.733Z,28.70
2022-08-17T11:16:09.361Z,28.70
2022-08-17T11:19:08.683Z,28.80
2022-08-17T11:22:08.317Z,28.90
2022-08-17T11:24:38.338Z,29.10
2022-08-17T11:27:19.566Z,29.30
2022-08-17T11:29:56.765Z,29.40
2022-08-17T11:32:33.642Z,29.50
2022-08-17T11:35:14.439Z,29.70
2022-08-17T11:37:50.560Z,29.80
2022-08-17T11:40:42.290Z,29.90
2022-08-17T11:43:29.238Z,29.90
2022-08-17T11:46:07.091Z,30.10
2022-08-17T11:48:58.996Z,30.20
2022-08-17T11:51:55.240Z,30.20
2022-08-17T11:54:41.949Z,30.30
2022-08-17T11:57:54.496Z,30.60
2022-08-17T12:00:52.467Z,30.60
2022-08-17T12:03:54.198Z,30.90
2022-08-17T12:06:33.738Z,31.30
2022-08-17T12:09:07.785Z,31.80
2022-08-17T12:11:55.575Z,32.20
2022-08-17T12:15:05.787Z,32.30
2022-08-17T12:17:39.687Z,32.60
2022-08-17T12:20:15.090Z,32.80
2022-08-17T12:22:53.357Z,32.70
2022-08-17T12:25:24.361Z,32.90
2022-08-17T12:28:04.766Z,33.10
2022-08-17T12:30:33.419Z,33.20
2022-08-17T12:33:00.897Z,33.00
2022-08-17T12:35:34.754Z,32.80
2022-08-17T12:38:04.393Z,33.00
2022-08-17T12:40:32.583Z,33.30
2022-08-17T12:43:02.401Z,33.80
2022-08-17T12:45:31.826Z,34.10
2022-08-17T12:48:06.480Z,34.20
2022-08-17T12:50:33.941Z,34.30
2022-08-17T12:53:02.847Z,34.50
2022-08-17T12:55:35.574Z,34.70
2022-08-17T12:58:02.759Z,34.70
2022-08-17T13:00:32.808Z,34.90
2022-08-17T13:03:02.180Z,34.30
2022-08-17T13:05:34.919Z,33.60
2022-08-17T13:08:13.668Z,33.00
2022-08-17T13:10:41.349Z,32.40
2022-08-17T13:13:19.692Z,31.90
2022-08-17T13:15:53.241Z,31.90
2022-08-17T13:18:38.764Z,32.40
2022-08-17T13:21:07.727Z,32.50
2022-08-17T13:23:36.038Z,32.50
2022-08-17T13:26:06.511Z,32.30
2022-08-17T13:28:36.197Z,31.90
2022-08-17T13:31:32.938Z,31.60
2022-08-17T13:34:19.140Z,31.50
2022-08-17T13:36:46.827Z,31.40
2022-08-17T13:39:20.450Z,31.30
2022-08-17T13:41:48.391Z,31.40
2022-08-17T13:44:32.439Z,31.70
2022-08-17T13:47:00.001Z,32.60
2022-08-17T13:49:41.915Z,32.80
2022-08-17T13:52:35.585Z,32.70
2022-08-17T13:55:15.950Z,32.30
2022-08-17T13:57:46.445Z,31.90
2022-08-17T14:00:19.208Z,31.40
2022-08-17T14:02:46.019Z,31.20
2022-08-17T14:05:13.167Z,31.00
2022-08-17T14:07:40.987Z,30.80
2022-08-17T14:10:14.767Z,30.70
2022-08-17T14:12:44.030Z,30.60
2022-08-17T14:15:12.915Z,30.50
2022-08-17T14:17:40.005Z,30.50
2022-08-17T14:20:09.843Z,30.40
2022-08-17T14:22:39.179Z,30.30
2022-08-17T14:25:10.280Z,30.30
2022-08-17T14:27:41.772Z,30.30
2022-08-17T14:30:21.705Z,30.30
2022-08-17T14:32:49.486Z,30.20
2022-08-17T14:35:16.692Z,30.20
2022-08-17T14:37:45.648Z,30.30
2022-08-17T14:40:14.846Z,30.30
2022-08-17T14:42:45.958Z,30.30
2022-08-17T14:45:31.812Z,30.30
2022-08-17T14:48:04.503Z,30.20
2022-08-17T14:50:32.057Z,30.10
2022-08-17T14:53:03.810Z,30.10
2022-08-17T14:55:31.106Z,30.10
2022-08-17T14:57:59.459Z,30.10
2022-08-17T15:00:27.118Z,30.00
2022-08-17T15:02:55.825Z,30.00
2022-08-17T15:05:25.180Z,30.00
2022-08-17T15:07:53.434Z,29.90
2022-08-17T15:10:21.120Z,29.90
2022-08-17T15:12:48.292Z,29.90
2022-08-17T15:15:17.930Z,29.80
2022-08-17T15:17:46.014Z,29.80
2022-08-17T15:20:17.542Z,29.80
2022-08-17T15:22:55.104Z,29.70
2022-08-17T15:25:23.243Z,29.70
2022-08-17T15:27:50.277Z,29.70
2022-08-17T15:30:19.104Z,29.70
2022-08-17T15:32:51.003Z,29.60
2022-08-17T15:35:28.159Z,29.60
2022-08-17T15:37:57.348Z,29.60
2022-08-17T15:40:25.471Z,29.50
2022-08-17T15:42:52.876Z,29.50
2022-08-17T15:45:24.984Z,29.50
2022-08-17T15:47:52.845Z,29.40
2022-08-17T15:50:19.993Z,29.40
2022-08-17T15:52:47.827Z,29.30
2022-08-17T15:55:15.543Z,28.90
2022-08-17T15:57:42.428Z,28.60
2022-08-17T16:00:10.817Z,28.40
2022-08-17T16:03:14.979Z,28.30
2022-08-17T16:05:31.090Z,28.10
2022-08-17T16:07:59.698Z,28.10
2022-08-17T16:10:34.697Z,28.10
2022-08-17T16:13:03.540Z,27.90
2022-08-17T16:15:33.527Z,27.90
2022-08-17T16:18:02.592Z,27.90
2022-08-17T16:20:30.617Z,27.90
2022-08-17T16:22:58.094Z,27.90
2022-08-17T16:25:51.884Z,27.90
2022-08-17T16:28:16.136Z,27.90
2022-08-17T16:30:43.152Z,28.00
2022-08-17T16:33:12.944Z,28.00
2022-08-17T16:35:41.860Z,28.40
2022-08-17T16:38:09.566Z,29.20
2022-08-17T16:40:38.031Z,29.90
2022-08-17T16:43:10.805Z,30.30
2022-08-17T16:45:40.007Z,30.20
2022-08-17T16:48:07.531Z,30.10
2022-08-17T16:50:36.247Z,30.00
2022-08-17T16:53:06.681Z,29.60
2022-08-17T16:55:35.613Z,29.20
2022-08-17T16:58:03.532Z,28.80
2022-08-17T17:00:31.167Z,28.50
2022-08-17T17:03:19.839Z,28.20
2022-08-17T17:05:59.013Z,28.10
2022-08-17T17:08:30.650Z,28.00
2022-08-17T17:11:03.645Z,28.00
2022-08-17T17:13:40.604Z,27.90
2022-08-17T17:16:18.697Z,27.70
2022-08-17T17:19:01.570Z,27.40
2022-08-17T17:21:35.925Z,27.20
2022-08-17T17:24:09.421Z,27.20
2022-08-17T17:26:51.050Z,27.20
2022-08-17T17:29:46.432Z,27.20
2022-08-17T17:32:20.967Z,27.20
2022-08-17T17:34:51.315Z,27.20
2022-08-17T17:37:25.640Z,27.20
2022-08-17T17:39:55.393Z,27.20
2022-08-17T17:42:24.654Z,27.20
2022-08-17T17:44:59.128Z,27.20
2022-08-17T17:47:26.931Z,27.20
2022-08-17T17:49:54.032Z,27.10
2022-08-17T17:52:30.589Z,27.10
2022-08-17T17:55:06.558Z,27.00
2022-08-17T17:57:47.250Z,27.00
2022-08-17T18:00:17.626Z,26.90
2022-08-17T18:03:00.894Z,26.80
2022-08-17T18:05:38.588Z,26.70
2022-08-17T18:08:19.294Z,26.60
2022-08-17T18:10:55.903Z,26.60
2022-08-17T18:13:35.725Z,26.50
2022-08-17T18:16:07.453Z,26.50
2022-08-17T18:18:40.213Z,26.50
2022-08-17T18:21:15.764Z,26.40
2022-08-17T18:23:54.152Z,26.40
2022-08-17T18:26:42.030Z,26.40
2022-08-17T18:29:22.509Z,26.30
2022-08-17T18:32:09.731Z,26.30
2022-08-17T18:34:47.309Z,26.30
2022-08-17T18:37:34.469Z,26.20
2022-08-17T18:40:33.294Z,26.20
2022-08-17T18:43:27.222Z,26.30
2022-08-17T18:45:56.044Z,26.10
2022-08-17T18:48:32.879Z,26.20
2022-08-17T18:51:04.738Z,26.10
2022-08-17T18:53:38.727Z,26.00
2022-08-17T18:56:30.703Z,26.00
2022-08-17T18:59:10.854Z,25.90
2022-08-17T19:01:53.815Z,25.90
2022-08-17T19:04:35.193Z,25.90
2022-08-17T19:07:10.577Z,25.90
2022-08-17T19:09:42.675Z,25.70
2022-08-17T19:12:26.476Z,25.50
2022-08-17T19:14:56.428Z,25.50
2022-08-17T19:17:28.908Z,25.50
2022-08-17T19:20:01.913Z,25.50
2022-08-17T19:22:37.189Z,25.40
2022-08-17T19:25:11.699Z,25.40
2022-08-17T19:27:50.602Z,25.30
2022-08-17T19:30:25.232Z,25.30
2022-08-17T19:32:52.965Z,25.20
2022-08-17T19:35:23.786Z,25.20
2022-08-17T19:38:03.538Z,25.20
2022-08-17T19:40:52.711Z,25.10
2022-08-17T19:43:28.483Z,25.10
2022-08-17T19:46:06.130Z,25.10
2022-08-17T19:48:45.521Z,25.10
2022-08-17T19:51:18.144Z,25.00
2022-08-17T19:54:05.360Z,24.90
2022-08-17T19:56:42.709Z,24.80
2022-08-17T19:59:17.923Z,24.70
2022-08-17T20:01:50.152Z,24.70
2022-08-17T20:04:32.320Z,24.70
2022-08-17T20:07:11.174Z,24.60
2022-08-17T20:09:40.009Z,24.60
2022-08-17T20:12:22.109Z,24.60
2022-08-17T20:15:06.605Z,24.50
2022-08-17T20:17:37.601Z,24.50
2022-08-17T20:20:19.681Z,24.50
2022-08-17T20:22:53.715Z,24.50
2022-08-17T20:25:30.249Z,24.50
2022-08-17T20:28:05.557Z,24.40
2022-08-17T20:30:38.027Z,24.30
2022-08-17T20:33:07.628Z,24.20
2022-08-17T20:35:36.614Z,24.40
2022-08-17T20:38:07.342Z,24.20
2022-08-17T20:40:38.376Z,24.10
2022-08-17T20:43:43.316Z,24.10
2022-08-17T20:46:23.059Z,24.30
2022-08-17T20:48:53.437Z,24.20
2022-08-17T20:51:28.193Z,24.10
2022-08-17T20:54:25.723Z,24.10
2022-08-17T20:56:57.502Z,24.00
2022-08-17T20:59:59.829Z,23.90
2022-08-17T21:02:28.989Z,23.90
2022-08-17T21:05:08.289Z,23.80
2022-08-17T21:07:55.420Z,23.80
2022-08-17T21:10:35.743Z,23.70
2022-08-17T21:13:24.680Z,23.60
2022-08-17T21:15:59.254Z,23.60
2022-08-17T21:18:38.530Z,23.60
2022-08-17T21:21:18.815Z,23.60
2022-08-17T21:24:04.263Z,23.60
2022-08-17T21:26:50.574Z,23.50
2022-08-17T21:29:31.467Z,23.50
2022-08-17T21:32:19.200Z,23.50
2022-08-17T21:35:25.408Z,23.50
2022-08-17T21:37:57.712Z,23.50
2022-08-17T21:40:27.096Z,23.60
2022-08-17T21:42:58.375Z,23.60
2022-08-17T21:45:29.446Z,23.40
2022-08-17T21:48:15.509Z,23.30
2022-08-17T21:50:46.061Z,23.20
2022-08-17T21:53:30.653Z,23.20
2022-08-17T21:55:59.922Z,23.10
2022-08-17T21:58:31.073Z,23.00
2022-08-17T22:01:19.519Z,23.00
2022-08-17T22:03:53.876Z,23.10
2022-08-17T22:06:26.308Z,22.90
2022-08-17T22:09:02.619Z,22.90
2022-08-17T22:11:29.597Z,22.80
2022-08-17T22:14:05.809Z,22.80
2022-08-17T22:16:33.261Z,22.90
2022-08-17T22:19:00.728Z,22.90
2022-08-17T22:21:28.935Z,22.80
2022-08-17T22:24:04.942Z,22.80
2022-08-17T22:26:59.960Z,22.80
2022-08-17T22:29:57.491Z,22.70
2022-08-17T22:32:34.820Z,22.70
2022-08-17T22:35:38.890Z,22.60
2022-08-17T22:38:27.985Z,22.50
2022-08-17T22:41:13.520Z,22.40
2022-08-17T22:43:43.132Z,22.40
2022-08-17T22:46:12.416Z,22.30
2022-08-17T22:48:47.980Z,22.30
2022-08-17T22:51:20.493Z,22.30
2022-08-17T22:54:10.050Z,22.30
2022-08-17T22:56:56.042Z,22.30
2022-08-17T22:59:40.790Z,22.30
2022-08-17T23:02:19.846Z,22.20
2022-08-17T23:04:49.324Z,22.20
2022-08-17T23:07:17.385Z,22.20
2022-08-17T23:09:46.113Z,22.30
2022-08-17T23:12:16.580Z,22.20
2022-08-17T23:14:46.430Z,22.20
2022-08-17T23:17:13.442Z,22.20
2022-08-17T23:19:40.734Z,22.10
2022-08-17T23:22:09.801Z,22.20
2022-08-17T23:24:42.028Z,22.20
2022-08-17T23:27:11.066Z,22.20
2022-08-17T23:29:41.631Z,22.00
2022-08-17T23:32:11.951Z,22.00
2022-08-17T23:34:40.527Z,21.90
2022-08-17T23:37:08.446Z,21.90
2022-08-17T23:39:36.532Z,21.90
2022-08-17T23:42:07.777Z,22.00
2022-08-17T23:44:37.054Z,22.10
2022-08-17T23:47:04.598Z,22.10
2022-08-17T23:49:32.552Z,22.20
2022-08-17T23:52:01.318Z,22.20
2022-08-17T23:54:33.862Z,22.30
2022-08-17T23:57:00.844Z,22.10
2022-08-17T23:59:29.542Z,22.00
